LRI582 EDDM-LFPG
Flight info
| Callsign | LRI582 |
|---|---|
| Flight time | 1h 15m |
| Altitude | 36000 |
| Route | GIVMI6E GIVMI Y101 INBED DCT REKDI DCT LOHRE DCT BOMBI DCT RUDUS DCT BETEX DCT IDOSA DCT TOLVU/N0489F350 DCT RAPOR DCT VEDUS VEDU9W |
| Aircraft | B77L/H-SDE1E2E3FGHIJ2J3J4J5M1RWXY/LB1D1 |
Departure
| Time | 2026-04-30 13:42 |
|---|---|
| Airport | Munich Airport (EDDM) |
Arrival
| Time | 2026-04-30 14:58 |
|---|---|
| Airport | Charles de Gaulle International Airport (LFPG) |
| Time | Latitude | Longitude | Altitude | Speed | Heading |
|---|---|---|---|---|---|
| 2026-04-30 13:07 | 48.34838 | 11.76638 | 1490 ft | 0 kts | 353° |
| 2026-04-30 13:32 | 48.34821 | 11.76641 | 1490 ft | 0 kts | 353° |
| 2026-04-30 13:33 | 48.34795 | 11.76651 | 1490 ft | 2 kts | 332° |
| 2026-04-30 13:33 | 48.34772 | 11.76679 | 1490 ft | 2 kts | 309° |
| 2026-04-30 13:34 | 48.34764 | 11.76697 | 1490 ft | 2 kts | 297° |
| 2026-04-30 13:34 | 48.34755 | 11.76760 | 1490 ft | 0 kts | 263° |
| 2026-04-30 13:35 | 48.34755 | 11.76764 | 1490 ft | 0 kts | 262° |
| 2026-04-30 13:38 | 48.34753 | 11.76741 | 1490 ft | 5 kts | 257° |
| 2026-04-30 13:38 | 48.34715 | 11.76679 | 1490 ft | 11 kts | 196° |
| 2026-04-30 13:38 | 48.34559 | 11.76530 | 1491 ft | 19 kts | 257° |
| 2026-04-30 13:39 | 48.34524 | 11.76063 | 1493 ft | 21 kts | 262° |
| 2026-04-30 13:39 | 48.34492 | 11.75643 | 1494 ft | 18 kts | 263° |
| 2026-04-30 13:40 | 48.34477 | 11.75459 | 1494 ft | 16 kts | 263° |
| 2026-04-30 13:40 | 48.34463 | 11.75298 | 1495 ft | 12 kts | 261° |
| 2026-04-30 13:40 | 48.34406 | 11.75227 | 1495 ft | 11 kts | 185° |
| 2026-04-30 13:40 | 48.34310 | 11.75237 | 1496 ft | 15 kts | 175° |
| 2026-04-30 13:41 | 48.34211 | 11.75253 | 1496 ft | 13 kts | 173° |
| 2026-04-30 13:41 | 48.34125 | 11.75271 | 1497 ft | 11 kts | 167° |
| 2026-04-30 13:41 | 48.34090 | 11.75362 | 1496 ft | 10 kts | 89° |
| 2026-04-30 13:41 | 48.34099 | 11.75493 | 1496 ft | 22 kts | 84° |
| 2026-04-30 13:42 | 48.34139 | 11.76033 | 1495 ft | 86 kts | 81° |
| 2026-04-30 13:42 | 48.34238 | 11.77281 | 1492 ft | 149 kts | 84° |
| 2026-04-30 13:42 | 48.34745 | 11.80629 | 2590 ft | 172 kts | 62° |
| 2026-04-30 13:43 | 48.35173 | 11.82253 | 3442 ft | 167 kts | 83° |
| 2026-04-30 13:43 | 48.34969 | 11.83959 | 4010 ft | 172 kts | 110° |
| 2026-04-30 13:43 | 48.34622 | 11.85662 | 4435 ft | 179 kts | 92° |
| 2026-04-30 13:43 | 48.34923 | 11.87502 | 4790 ft | 192 kts | 58° |
| 2026-04-30 13:44 | 48.35960 | 11.88952 | 5142 ft | 215 kts | 28° |
| 2026-04-30 13:44 | 48.37460 | 11.89361 | 5623 ft | 235 kts | 359° |
| 2026-04-30 13:44 | 48.39090 | 11.88567 | 5991 ft | 262 kts | 330° |
| 2026-04-30 13:44 | 48.40408 | 11.86569 | 6629 ft | 275 kts | 305° |
| 2026-04-30 13:45 | 48.42659 | 11.81805 | 7876 ft | 288 kts | 316° |
| 2026-04-30 13:45 | 48.44074 | 11.79637 | 8617 ft | 289 kts | 319° |
| 2026-04-30 13:45 | 48.45481 | 11.77524 | 9464 ft | 287 kts | 317° |
| 2026-04-30 13:46 | 48.46848 | 11.75346 | 10242 ft | 288 kts | 317° |
| 2026-04-30 13:46 | 48.48260 | 11.73183 | 10636 ft | 302 kts | 318° |
| 2026-04-30 13:46 | 48.49782 | 11.70859 | 10966 ft | 319 kts | 318° |
| 2026-04-30 13:46 | 48.51380 | 11.68410 | 11354 ft | 335 kts | 318° |
| 2026-04-30 13:47 | 48.53041 | 11.65865 | 11757 ft | 350 kts | 318° |
| 2026-04-30 13:47 | 48.54789 | 11.63190 | 12210 ft | 365 kts | 319° |
| 2026-04-30 13:47 | 48.56579 | 11.60447 | 12655 ft | 379 kts | 318° |
| 2026-04-30 13:47 | 48.58431 | 11.57469 | 13200 ft | 394 kts | 315° |
| 2026-04-30 13:48 | 48.60200 | 11.54294 | 14000 ft | 400 kts | 314° |
| 2026-04-30 13:48 | 48.61982 | 11.51083 | 14949 ft | 404 kts | 314° |
| 2026-04-30 13:48 | 48.63782 | 11.47849 | 15912 ft | 408 kts | 315° |
| 2026-04-30 13:48 | 48.65621 | 11.44555 | 16803 ft | 415 kts | 315° |
| 2026-04-30 13:49 | 48.67475 | 11.41236 | 17695 ft | 420 kts | 315° |
| 2026-04-30 13:49 | 48.69414 | 11.37883 | 18646 ft | 421 kts | 320° |
| 2026-04-30 13:49 | 48.71624 | 11.35003 | 19516 ft | 421 kts | 329° |
| 2026-04-30 13:49 | 48.74053 | 11.32486 | 20359 ft | 425 kts | 331° |
| 2026-04-30 13:50 | 48.76505 | 11.30009 | 21234 ft | 429 kts | 331° |
| 2026-04-30 13:50 | 48.81467 | 11.24989 | 22875 ft | 438 kts | 332° |
| 2026-04-30 13:50 | 48.84089 | 11.22546 | 23655 ft | 438 kts | 338° |
| 2026-04-30 13:51 | 48.86848 | 11.20757 | 24393 ft | 437 kts | 345° |
| 2026-04-30 13:51 | 48.89752 | 11.19259 | 25120 ft | 441 kts | 347° |
| 2026-04-30 13:51 | 48.92646 | 11.17794 | 25883 ft | 444 kts | 347° |
| 2026-04-30 13:51 | 48.95594 | 11.16301 | 26611 ft | 448 kts | 347° |
| 2026-04-30 13:52 | 48.98563 | 11.14794 | 27265 ft | 453 kts | 347° |
| 2026-04-30 13:52 | 49.01556 | 11.13273 | 27959 ft | 458 kts | 347° |
| 2026-04-30 13:52 | 49.04575 | 11.11736 | 28666 ft | 462 kts | 347° |
| 2026-04-30 13:52 | 49.07627 | 11.10179 | 29361 ft | 466 kts | 347° |
| 2026-04-30 13:53 | 49.10700 | 11.08610 | 30139 ft | 468 kts | 347° |
| 2026-04-30 13:53 | 49.13781 | 11.07034 | 31155 ft | 465 kts | 347° |
| 2026-04-30 13:53 | 49.16797 | 11.05490 | 32303 ft | 458 kts | 347° |
| 2026-04-30 13:53 | 49.19823 | 11.03940 | 33369 ft | 451 kts | 347° |
| 2026-04-30 13:54 | 49.22804 | 11.02406 | 34267 ft | 447 kts | 347° |
| 2026-04-30 13:54 | 49.25785 | 11.00871 | 34991 ft | 446 kts | 347° |
| 2026-04-30 13:54 | 49.28711 | 10.99363 | 35505 ft | 446 kts | 347° |
| 2026-04-30 13:54 | 49.31677 | 10.97832 | 36059 ft | 445 kts | 347° |
| 2026-04-30 13:55 | 49.34561 | 10.96162 | 36318 ft | 454 kts | 341° |
| 2026-04-30 13:55 | 49.37411 | 10.93867 | 36346 ft | 467 kts | 334° |
| 2026-04-30 13:55 | 49.42505 | 10.87432 | 36352 ft | 479 kts | 318° |
| 2026-04-30 13:56 | 49.46746 | 10.79389 | 36356 ft | 487 kts | 315° |
| 2026-04-30 13:56 | 49.50949 | 10.71249 | 36348 ft | 486 kts | 315° |
| 2026-04-30 13:57 | 49.55169 | 10.63123 | 36347 ft | 486 kts | 315° |
| 2026-04-30 13:57 | 49.59391 | 10.55007 | 36345 ft | 485 kts | 315° |
| 2026-04-30 13:58 | 49.65738 | 10.42796 | 36346 ft | 486 kts | 315° |
| 2026-04-30 13:59 | 49.69619 | 10.34224 | 36337 ft | 491 kts | 309° |
| 2026-04-30 13:59 | 49.73428 | 10.25451 | 36329 ft | 492 kts | 309° |
| 2026-04-30 14:00 | 49.77264 | 10.16653 | 36336 ft | 491 kts | 309° |
| 2026-04-30 14:00 | 49.82990 | 10.03523 | 36336 ft | 491 kts | 309° |
| 2026-04-30 14:01 | 49.86817 | 9.94730 | 36338 ft | 491 kts | 309° |
| 2026-04-30 14:01 | 49.90647 | 9.85910 | 36339 ft | 492 kts | 309° |
| 2026-04-30 14:02 | 49.94447 | 9.77132 | 36342 ft | 493 kts | 309° |
| 2026-04-30 14:02 | 49.98272 | 9.68270 | 36340 ft | 492 kts | 309° |
| 2026-04-30 14:03 | 50.02092 | 9.59391 | 36348 ft | 494 kts | 309° |
| 2026-04-30 14:03 | 50.05217 | 9.49905 | 36324 ft | 504 kts | 293° |
| 2026-04-30 14:04 | 50.06483 | 9.39082 | 36328 ft | 513 kts | 275° |
| 2026-04-30 14:04 | 50.06417 | 9.27912 | 36344 ft | 517 kts | 272° |
| 2026-04-30 14:05 | 50.06263 | 9.16713 | 36349 ft | 517 kts | 272° |
| 2026-04-30 14:05 | 50.06097 | 9.05598 | 36341 ft | 516 kts | 271° |
| 2026-04-30 14:06 | 50.05824 | 8.88816 | 36336 ft | 516 kts | 271° |
| 2026-04-30 14:07 | 50.05574 | 8.72082 | 36342 ft | 516 kts | 272° |
| 2026-04-30 14:08 | 50.05403 | 8.55345 | 36348 ft | 517 kts | 272° |
| 2026-04-30 14:08 | 50.05202 | 8.38584 | 36353 ft | 516 kts | 272° |
| 2026-04-30 14:09 | 50.05053 | 8.27394 | 36348 ft | 517 kts | 271° |
| 2026-04-30 14:10 | 50.04797 | 8.10623 | 36334 ft | 518 kts | 269° |
| 2026-04-30 14:10 | 50.03668 | 7.99573 | 36330 ft | 519 kts | 260° |
| 2026-04-30 14:11 | 50.02202 | 7.88597 | 36329 ft | 519 kts | 259° |
| 2026-04-30 14:11 | 50.00720 | 7.77605 | 36322 ft | 520 kts | 259° |
| 2026-04-30 14:12 | 49.99227 | 7.66618 | 36312 ft | 519 kts | 259° |
| 2026-04-30 14:12 | 49.97716 | 7.55574 | 36314 ft | 518 kts | 259° |
| 2026-04-30 14:13 | 49.96211 | 7.44658 | 36320 ft | 518 kts | 259° |
| 2026-04-30 14:13 | 49.94682 | 7.33648 | 36321 ft | 518 kts | 258° |
| 2026-04-30 14:14 | 49.93156 | 7.22740 | 36311 ft | 518 kts | 258° |
| 2026-04-30 14:14 | 49.91615 | 7.11807 | 36314 ft | 518 kts | 258° |
| 2026-04-30 14:15 | 49.90057 | 7.00837 | 36304 ft | 518 kts | 258° |
| 2026-04-30 14:15 | 49.88501 | 6.89949 | 36299 ft | 517 kts | 258° |
| 2026-04-30 14:16 | 49.86933 | 6.79063 | 36293 ft | 516 kts | 258° |
| 2026-04-30 14:16 | 49.85358 | 6.68206 | 36293 ft | 516 kts | 258° |
| 2026-04-30 14:17 | 49.83774 | 6.57365 | 36286 ft | 515 kts | 258° |
| 2026-04-30 14:17 | 49.82175 | 6.46495 | 36284 ft | 515 kts | 258° |
| 2026-04-30 14:18 | 49.80645 | 6.35636 | 36284 ft | 515 kts | 259° |
| 2026-04-30 14:18 | 49.78521 | 6.19410 | 36282 ft | 515 kts | 258° |
| 2026-04-30 14:19 | 49.76347 | 6.03091 | 36282 ft | 515 kts | 258° |
| 2026-04-30 14:20 | 49.74884 | 5.92245 | 36277 ft | 513 kts | 258° |
| 2026-04-30 14:20 | 49.71742 | 5.76440 | 36259 ft | 513 kts | 250° |
| 2026-04-30 14:21 | 49.70553 | 5.71333 | 35944 ft | 507 kts | 250° |
| 2026-04-30 14:21 | 49.69349 | 5.66173 | 35078 ft | 513 kts | 249° |
| 2026-04-30 14:21 | 49.66906 | 5.55734 | 33264 ft | 518 kts | 250° |
| 2026-04-30 14:22 | 49.65690 | 5.50553 | 32417 ft | 518 kts | 250° |
| 2026-04-30 14:22 | 49.63230 | 5.40110 | 30740 ft | 518 kts | 250° |
| 2026-04-30 14:22 | 49.62031 | 5.34997 | 30292 ft | 510 kts | 251° |
| 2026-04-30 14:23 | 49.59890 | 5.24658 | 29265 ft | 497 kts | 256° |
| 2026-04-30 14:23 | 49.59208 | 5.14217 | 28196 ft | 487 kts | 271° |
| 2026-04-30 14:24 | 49.59289 | 5.03916 | 27124 ft | 476 kts | 271° |
| 2026-04-30 14:24 | 49.59331 | 4.98831 | 26583 ft | 471 kts | 271° |
| 2026-04-30 14:25 | 49.59405 | 4.88889 | 25998 ft | 450 kts | 271° |
| 2026-04-30 14:25 | 49.59466 | 4.79557 | 25761 ft | 423 kts | 271° |
| 2026-04-30 14:26 | 49.59517 | 4.70577 | 24958 ft | 427 kts | 271° |
| 2026-04-30 14:26 | 49.59539 | 4.66010 | 24419 ft | 429 kts | 271° |
| 2026-04-30 14:26 | 49.59579 | 4.56913 | 23453 ft | 423 kts | 271° |
| 2026-04-30 14:27 | 49.59596 | 4.52416 | 22981 ft | 419 kts | 271° |
| 2026-04-30 14:27 | 49.59611 | 4.47920 | 22503 ft | 416 kts | 271° |
| 2026-04-30 14:27 | 49.59625 | 4.43493 | 22032 ft | 413 kts | 271° |
| 2026-04-30 14:28 | 49.59646 | 4.34892 | 21106 ft | 406 kts | 270° |
| 2026-04-30 14:28 | 49.59654 | 4.30445 | 20621 ft | 403 kts | 270° |
| 2026-04-30 14:28 | 49.59661 | 4.26114 | 20149 ft | 400 kts | 270° |
| 2026-04-30 14:28 | 49.59666 | 4.21847 | 19683 ft | 397 kts | 269° |
| 2026-04-30 14:29 | 49.59670 | 4.13449 | 18762 ft | 391 kts | 269° |
| 2026-04-30 14:29 | 49.58987 | 4.06621 | 17978 ft | 383 kts | 250° |
| 2026-04-30 14:30 | 49.54730 | 3.95022 | 16488 ft | 370 kts | 235° |
| 2026-04-30 14:31 | 49.51954 | 3.88406 | 15570 ft | 365 kts | 235° |
| 2026-04-30 14:31 | 49.49202 | 3.81882 | 14666 ft | 361 kts | 235° |
| 2026-04-30 14:31 | 49.47891 | 3.78633 | 14217 ft | 360 kts | 242° |
| 2026-04-30 14:32 | 49.46382 | 3.71326 | 13416 ft | 355 kts | 255° |
| 2026-04-30 14:32 | 49.45775 | 3.67716 | 13317 ft | 342 kts | 255° |
| 2026-04-30 14:32 | 49.45191 | 3.64246 | 13220 ft | 330 kts | 255° |
| 2026-04-30 14:33 | 49.44621 | 3.60868 | 13132 ft | 320 kts | 255° |
| 2026-04-30 14:33 | 49.43497 | 3.54249 | 13130 ft | 319 kts | 255° |
| 2026-04-30 14:33 | 49.42935 | 3.50948 | 13130 ft | 318 kts | 254° |
| 2026-04-30 14:34 | 49.42376 | 3.47669 | 13136 ft | 320 kts | 254° |
| 2026-04-30 14:34 | 49.41740 | 3.44400 | 13137 ft | 318 kts | 249° |
| 2026-04-30 14:34 | 49.40926 | 3.41240 | 12963 ft | 320 kts | 246° |
| 2026-04-30 14:34 | 49.40067 | 3.38060 | 12711 ft | 317 kts | 246° |
| 2026-04-30 14:35 | 49.38678 | 3.32906 | 12337 ft | 314 kts | 245° |
| 2026-04-30 14:35 | 49.37564 | 3.28760 | 12043 ft | 313 kts | 245° |
| 2026-04-30 14:35 | 49.36733 | 3.25663 | 11822 ft | 311 kts | 245° |
| 2026-04-30 14:36 | 49.35910 | 3.22602 | 11606 ft | 310 kts | 245° |
| 2026-04-30 14:36 | 49.35092 | 3.19567 | 11394 ft | 309 kts | 245° |
| 2026-04-30 14:36 | 49.34273 | 3.16526 | 11183 ft | 308 kts | 245° |
| 2026-04-30 14:36 | 49.33456 | 3.13499 | 10971 ft | 307 kts | 245° |
| 2026-04-30 14:37 | 49.32630 | 3.10446 | 10752 ft | 305 kts | 245° |
| 2026-04-30 14:37 | 49.31824 | 3.07467 | 10541 ft | 304 kts | 245° |
| 2026-04-30 14:37 | 49.31021 | 3.04501 | 10331 ft | 298 kts | 245° |
| 2026-04-30 14:37 | 49.30228 | 3.01575 | 10127 ft | 293 kts | 245° |
| 2026-04-30 14:38 | 49.29453 | 2.98722 | 9917 ft | 290 kts | 245° |
| 2026-04-30 14:38 | 49.28677 | 2.95872 | 9702 ft | 288 kts | 245° |
| 2026-04-30 14:38 | 49.27902 | 2.93025 | 9492 ft | 287 kts | 245° |
| 2026-04-30 14:38 | 49.27131 | 2.90197 | 9286 ft | 286 kts | 245° |
| 2026-04-30 14:39 | 49.26370 | 2.87410 | 9080 ft | 285 kts | 245° |
| 2026-04-30 14:39 | 49.25603 | 2.84602 | 8869 ft | 284 kts | 245° |
| 2026-04-30 14:39 | 49.24845 | 2.81831 | 8665 ft | 283 kts | 245° |
| 2026-04-30 14:40 | 49.23322 | 2.76276 | 8245 ft | 282 kts | 245° |
| 2026-04-30 14:40 | 49.22566 | 2.73525 | 8035 ft | 281 kts | 245° |
| 2026-04-30 14:40 | 49.21803 | 2.70749 | 7835 ft | 281 kts | 245° |
| 2026-04-30 14:40 | 49.21053 | 2.68025 | 7623 ft | 280 kts | 245° |
| 2026-04-30 14:41 | 49.20298 | 2.65284 | 7412 ft | 278 kts | 245° |
| 2026-04-30 14:41 | 49.19542 | 2.62545 | 7224 ft | 278 kts | 245° |
| 2026-04-30 14:41 | 49.18796 | 2.59841 | 7030 ft | 277 kts | 245° |
| 2026-04-30 14:41 | 49.18183 | 2.57049 | 6817 ft | 277 kts | 260° |
| 2026-04-30 14:42 | 49.18026 | 2.54088 | 6614 ft | 278 kts | 266° |
| 2026-04-30 14:42 | 49.17966 | 2.51145 | 6426 ft | 279 kts | 267° |
| 2026-04-30 14:42 | 49.17909 | 2.48171 | 6233 ft | 278 kts | 267° |
| 2026-04-30 14:42 | 49.17858 | 2.45233 | 6036 ft | 277 kts | 267° |
| 2026-04-30 14:43 | 49.17812 | 2.42272 | 5856 ft | 278 kts | 267° |
| 2026-04-30 14:43 | 49.17766 | 2.39280 | 5657 ft | 278 kts | 267° |
| 2026-04-30 14:43 | 49.17718 | 2.36325 | 5417 ft | 276 kts | 267° |
| 2026-04-30 14:43 | 49.17672 | 2.33453 | 5308 ft | 268 kts | 266° |
| 2026-04-30 14:44 | 49.17630 | 2.30649 | 5257 ft | 257 kts | 266° |
| 2026-04-30 14:44 | 49.17588 | 2.27945 | 5232 ft | 253 kts | 266° |
| 2026-04-30 14:44 | 49.17547 | 2.25227 | 5242 ft | 247 kts | 266° |
| 2026-04-30 14:44 | 49.17509 | 2.22708 | 5248 ft | 231 kts | 266° |
| 2026-04-30 14:45 | 49.17477 | 2.20321 | 5242 ft | 218 kts | 266° |
| 2026-04-30 14:45 | 49.17449 | 2.18019 | 5235 ft | 213 kts | 266° |
| 2026-04-30 14:45 | 49.17421 | 2.15771 | 5225 ft | 211 kts | 266° |
| 2026-04-30 14:45 | 49.17390 | 2.13506 | 5226 ft | 210 kts | 266° |
| 2026-04-30 14:46 | 49.17360 | 2.11248 | 5219 ft | 211 kts | 266° |
| 2026-04-30 14:46 | 49.17332 | 2.09015 | 5231 ft | 211 kts | 266° |
| 2026-04-30 14:46 | 49.17304 | 2.06758 | 5226 ft | 211 kts | 267° |
| 2026-04-30 14:46 | 49.17196 | 2.04503 | 5201 ft | 209 kts | 249° |
| 2026-04-30 14:47 | 49.16442 | 2.02703 | 5178 ft | 199 kts | 213° |
| 2026-04-30 14:47 | 49.15213 | 2.01892 | 5153 ft | 188 kts | 180° |
| 2026-04-30 14:47 | 49.13953 | 2.02167 | 5134 ft | 181 kts | 158° |
| 2026-04-30 14:47 | 49.12746 | 2.02811 | 5136 ft | 182 kts | 157° |
| 2026-04-30 14:48 | 49.11534 | 2.03464 | 5139 ft | 182 kts | 157° |
| 2026-04-30 14:48 | 49.10341 | 2.04108 | 5137 ft | 183 kts | 157° |
| 2026-04-30 14:48 | 49.09129 | 2.04761 | 5137 ft | 183 kts | 157° |
| 2026-04-30 14:48 | 49.07918 | 2.05414 | 5139 ft | 184 kts | 157° |
| 2026-04-30 14:49 | 49.06710 | 2.06065 | 5139 ft | 184 kts | 157° |
| 2026-04-30 14:49 | 49.05501 | 2.06717 | 5135 ft | 183 kts | 157° |
| 2026-04-30 14:49 | 49.04285 | 2.07372 | 5134 ft | 184 kts | 157° |
| 2026-04-30 14:49 | 49.03064 | 2.08031 | 5132 ft | 184 kts | 157° |
| 2026-04-30 14:50 | 49.00633 | 2.09344 | 5131 ft | 184 kts | 157° |
| 2026-04-30 14:50 | 48.99424 | 2.09997 | 5135 ft | 184 kts | 157° |
| 2026-04-30 14:51 | 48.97569 | 2.12486 | 5123 ft | 181 kts | 113° |
| 2026-04-30 14:51 | 48.97270 | 2.14338 | 5122 ft | 180 kts | 91° |
| 2026-04-30 14:51 | 48.97483 | 2.18192 | 4989 ft | 185 kts | 87° |
| 2026-04-30 14:52 | 48.97609 | 2.20110 | 4761 ft | 180 kts | 87° |
| 2026-04-30 14:52 | 48.97842 | 2.23903 | 4307 ft | 177 kts | 87° |
| 2026-04-30 14:52 | 48.97948 | 2.25757 | 4082 ft | 176 kts | 87° |
| 2026-04-30 14:53 | 48.98157 | 2.29458 | 3631 ft | 173 kts | 87° |
| 2026-04-30 14:53 | 48.98260 | 2.31295 | 3406 ft | 170 kts | 87° |
| 2026-04-30 14:54 | 48.98453 | 2.34774 | 2978 ft | 159 kts | 87° |
| 2026-04-30 14:54 | 48.98633 | 2.38025 | 2568 ft | 148 kts | 87° |
| 2026-04-30 14:55 | 48.98802 | 2.41115 | 2184 ft | 145 kts | 87° |
| 2026-04-30 14:55 | 48.98886 | 2.42650 | 1989 ft | 144 kts | 87° |
| 2026-04-30 14:55 | 48.99046 | 2.45570 | 1621 ft | 130 kts | 88° |
| 2026-04-30 14:56 | 48.99192 | 2.48280 | 1269 ft | 127 kts | 88° |
| 2026-04-30 14:56 | 48.99364 | 2.50975 | 973 ft | 129 kts | 88° |
| 2026-04-30 14:57 | 48.99439 | 2.52378 | 717 ft | 135 kts | 88° |
| 2026-04-30 14:57 | 48.99562 | 2.55175 | 376 ft | 128 kts | 86° |
| 2026-04-30 14:58 | 48.99663 | 2.57084 | 355 ft | 31 kts | 84° |
| 2026-04-30 14:58 | 48.99675 | 2.57257 | 355 ft | 13 kts | 83° |
| 2026-04-30 14:58 | 48.99751 | 2.57490 | 353 ft | 12 kts | 65° |
| 2026-04-30 14:59 | 48.99819 | 2.57703 | 352 ft | 9 kts | 41° |
| 2026-04-30 15:00 | 48.99881 | 2.57532 | 355 ft | 11 kts | 271° |
| 2026-04-30 15:00 | 48.99859 | 2.57184 | 357 ft | 18 kts | 265° |
| 2026-04-30 15:01 | 48.99932 | 2.56888 | 358 ft | 14 kts | 272° |
| 2026-04-30 15:01 | 48.99929 | 2.56786 | 358 ft | 14 kts | 265° |
| 2026-04-30 15:01 | 48.99910 | 2.56434 | 357 ft | 14 kts | 265° |
| 2026-04-30 15:02 | 48.99901 | 2.56273 | 355 ft | 15 kts | 264° |
| 2026-04-30 15:02 | 48.99892 | 2.56104 | 353 ft | 16 kts | 266° |
| 2026-04-30 15:03 | 48.99953 | 2.55695 | 346 ft | 14 kts | 305° |
| 2026-04-30 15:03 | 48.99979 | 2.55373 | 342 ft | 16 kts | 265° |
| 2026-04-30 15:04 | 48.99961 | 2.55005 | 338 ft | 17 kts | 265° |
| 2026-04-30 15:04 | 48.99932 | 2.54489 | 337 ft | 14 kts | 265° |
| 2026-04-30 15:05 | 48.99995 | 2.54303 | 335 ft | 2 kts | 352° |
| 2026-04-30 15:06 | 49.00003 | 2.54301 | 335 ft | 0 kts | 354° |